Tropical Cyclones
[Index]
Main Index Home Page Stock Weather Photos Extreme Storms Discussion Storm News and Storm Chasing Reports Tropical Cyclones / Hurricanes / Typhoons Weather Data and Links Wild Fires / Bushfires Weather Observation Techniques Weather Picture Catalogue Tornado Pictures and Reports Stock Video Footage and DVDs for sale
Season 2002-2003 Tropical Cyclone INIGO Track Map
Season 2002-2003 Summaries (Operational Data): [AU] [SIO] [SPAC] [SH]
<<- Previous TC | 2002-2003 Season | Next TC ->>

click for intensity scale information  Lat/long Grid: Show Hide

 Date Labels: Show Hide

Operational Tropical Cyclone Data : JTWC Advisories

Name: INIGO
Number: 0326

01 Apr 2003 10:00 UTC to 08 Apr 2003 12:00 UTC

    date/time    lat    long     hPa   cat  kts
2003-04-01 10   10.0   120.6    1000         30          
2003-04-01 16   10.0   119.4    1000         30          
2003-04-01 22   10.3   119.5     998         30          
2003-04-02 00   10.8   119.4     995    1    40          
2003-04-02 04   11.0   119.1     990    1    45          
2003-04-02 10   11.3   118.5     985    2    55          
2003-04-02 16   11.5   118.1     980    2    55          
2003-04-02 22   11.6   118.1     975    2    55          
2003-04-03 04   11.8   117.7     960    3    70          
2003-04-03 10   12.0   117.1     945    3    85          
2003-04-03 16   12.3   116.5     945    3    85          
2003-04-03 22   12.5   116.0     920    5   120          
2003-04-04 04   12.8   115.5     900    5   120          
2003-04-04 10   13.4   114.8     900    5   120          
2003-04-04 16   13.8   114.2     900    5   120          
2003-04-04 22   14.2   113.7     905    5   120          
2003-04-05 04   14.5   113.2     910    5   120          
2003-04-05 10   14.5   113.0     915    5   110          
2003-04-05 16   14.6   112.9     930    4   100          
2003-04-05 22   15.0   112.7     940    4    90          
2003-04-06 04   15.3   112.8     940    4    90          
2003-04-06 10   15.5   112.8     955    3    80          
2003-04-06 16   15.8   113.0     960    3    80          
2003-04-06 22   16.4   113.3     965    3    70          
2003-04-07 04   17.1   113.4     965    3    65          
2003-04-07 10   17.8   114.4     965    3    70          
2003-04-07 16   18.9   115.3     975    2    55          
2003-04-07 22   19.7   115.1     990    2    50          
2003-04-08 04   20.8   115.8     997    1    40          
2003-04-08 06   20.8   116.1                 30          
2003-04-08 12   21.9   117.6                             
Winds are 10-min average.

Tropical cyclone tracks developed by Michael Bath using operational warnings and advisories and Google Maps.


[Australian Severe Weather index] [Copyright Notice] [Email Contacts] [Search This Site] [Privacy Policy]
Document: tropical_cyclone_inigo.htm Updated: 2 May 2017